ES-0121 weather

Aeródromo de Beteta
Beteta, Castilla-La Mancha, Spain

Public forecast

Using degrees Celsius for public forecast. Weather courtesy of forecast.io.

Closest aviation weather report (METAR) to Aeródromo de Beteta

Closest report is Teruel Airport, 40.1 nm (74.2 km) ESE. Retrieved 2019/10/18 18:30 UTC (7 minutes ago):

LETL 181830Z AUTO 19005KT CAVOK 15/08 Q1016

Closest aviation forecast (TAF) to Aeródromo de Beteta

Closest forecast is Torrejón Airport, 62.5 nm (115.8 km) W. Retrieved 2019/10/18 18:27 UTC (10 minutes ago):

TAF LETO 181700Z 1818/1918 22012KT 9999 SCT030 TX21/1915Z TN11/1906Z TEMPO 1902/1910 2000 BR BKN008 PROB30 TEMPO 1903/1908 1000 BCFG BKN003 PROB40 TEMPO 1914/1918 20015G27KT